createdAt,value
2018-12-13T00:01:24.325Z,1.40
2018-12-13T00:03:53.176Z,1.37
2018-12-13T00:06:22.213Z,1.40
2018-12-13T00:08:51.098Z,1.37
2018-12-13T00:11:20.061Z,1.33
2018-12-13T00:13:48.792Z,1.20
2018-12-13T00:16:17.724Z,1.30
2018-12-13T00:18:46.565Z,1.20
2018-12-13T00:21:15.606Z,1.30
2018-12-13T00:23:44.709Z,1.20
2018-12-13T00:26:13.686Z,1.43
2018-12-13T00:28:42.764Z,1.10
2018-12-13T00:31:11.709Z,1.20
2018-12-13T00:33:40.592Z,1.03
2018-12-13T00:36:09.608Z,1.30
2018-12-13T00:38:38.524Z,1.20
2018-12-13T00:41:07.577Z,1.57
2018-12-13T00:43:36.552Z,2.47
2018-12-13T00:46:05.558Z,3.67
2018-12-13T00:48:34.552Z,3.00
2018-12-13T00:51:03.453Z,3.03
2018-12-13T00:53:32.500Z,2.57
2018-12-13T00:56:01.576Z,2.60
2018-12-13T00:58:30.563Z,2.50
2018-12-13T01:01:01.489Z,2.13
2018-12-13T01:03:31.148Z,2.30
2018-12-13T01:06:00.179Z,3.50
2018-12-13T01:08:29.181Z,3.93
2018-12-13T01:10:58.162Z,4.37
2018-12-13T01:13:27.176Z,4.10
2018-12-13T01:15:56.175Z,5.43
2018-12-13T01:18:25.282Z,5.63
2018-12-13T01:20:54.275Z,4.67
2018-12-13T01:23:22.941Z,1.53
2018-12-13T01:25:51.923Z,1.10
2018-12-13T01:28:20.905Z,1.13
2018-12-13T01:30:50.000Z,1.70
2018-12-13T01:33:19.059Z,2.30
2018-12-13T01:35:48.084Z,1.80
2018-12-13T01:38:17.015Z,1.70
2018-12-13T01:40:45.874Z,1.40
2018-12-13T01:43:14.882Z,1.20
2018-12-13T01:45:43.681Z,1.10
2018-12-13T01:48:12.837Z,1.60
2018-12-13T01:50:41.808Z,2.00
2018-12-13T01:53:10.484Z,3.13
2018-12-13T01:55:39.194Z,3.10
2018-12-13T01:58:08.547Z,2.50
2018-12-13T02:00:37.614Z,3.10
2018-12-13T02:03:06.737Z,3.20
2018-12-13T02:05:35.782Z,2.50
2018-12-13T02:08:04.433Z,2.77
2018-12-13T02:10:33.426Z,3.07
2018-12-13T02:13:02.462Z,2.20
2018-12-13T02:15:33.241Z,1.60
2018-12-13T02:18:02.254Z,1.77
2018-12-13T02:20:31.328Z,1.40
2018-12-13T02:23:00.348Z,1.80
2018-12-13T02:25:29.398Z,1.50
2018-12-13T02:27:58.562Z,1.50
2018-12-13T02:30:27.789Z,1.50
2018-12-13T02:32:56.724Z,1.20
2018-12-13T02:35:25.661Z,1.70
2018-12-13T02:37:54.568Z,9.67
2018-12-13T02:40:23.536Z,8.73
2018-12-13T02:42:52.716Z,2.00
2018-12-13T02:45:21.556Z,1.70
2018-12-13T02:47:50.595Z,1.80
2018-12-13T02:50:19.677Z,2.10
2018-12-13T02:52:48.390Z,1.80
2018-12-13T02:55:17.139Z,1.60
2018-12-13T02:57:45.951Z,5.07
2018-12-13T03:00:14.815Z,2.97
2018-12-13T03:02:43.614Z,3.33
2018-12-13T03:05:12.626Z,4.80
2018-12-13T03:07:41.755Z,4.80
2018-12-13T03:10:10.731Z,4.30
2018-12-13T03:12:39.711Z,6.80
2018-12-13T03:15:08.676Z,4.73
2018-12-13T03:17:37.287Z,3.53
2018-12-13T03:20:06.978Z,4.27
2018-12-13T03:22:35.873Z,7.20
2018-12-13T03:25:04.894Z,9.40
2018-12-13T03:27:33.927Z,4.40
2018-12-13T03:30:02.988Z,3.70
2018-12-13T03:32:32.106Z,3.60
2018-12-13T03:35:01.304Z,2.50
2018-12-13T03:37:30.100Z,2.67
2018-12-13T03:39:58.998Z,1.90
2018-12-13T03:42:28.042Z,2.70
2018-12-13T03:44:57.039Z,2.80
2018-12-13T03:47:25.906Z,2.17
2018-12-13T03:49:54.793Z,1.80
2018-12-13T03:52:23.816Z,1.77
2018-12-13T03:54:52.926Z,5.60
2018-12-13T03:57:22.083Z,4.80
2018-12-13T03:59:50.800Z,3.97
2018-12-13T04:02:19.780Z,3.13
2018-12-13T04:04:48.652Z,4.63
2018-12-13T04:07:17.633Z,3.50
2018-12-13T04:09:46.561Z,9.40
2018-12-13T04:12:15.733Z,34.57
2018-12-13T04:14:44.732Z,35.70
2018-12-13T04:17:13.439Z,26.93
2018-12-13T04:19:42.150Z,20.13
2018-12-13T04:22:11.145Z,32.33
2018-12-13T04:24:40.284Z,61.50
2018-12-13T04:27:09.277Z,33.10
2018-12-13T04:29:38.075Z,23.60
2018-12-13T04:32:06.959Z,24.20
2018-12-13T04:34:35.859Z,19.93
2018-12-13T04:37:04.991Z,13.80
2018-12-13T04:39:34.137Z,9.70
2018-12-13T04:42:02.806Z,7.13
2018-12-13T04:44:31.526Z,4.30
2018-12-13T04:47:00.507Z,7.57
2018-12-13T04:49:29.627Z,6.13
2018-12-13T04:51:58.751Z,5.40
2018-12-13T04:54:27.931Z,4.13
2018-12-13T04:56:56.862Z,9.30
2018-12-13T04:59:25.929Z,25.73
2018-12-13T05:01:54.665Z,21.03
2018-12-13T05:04:23.641Z,20.53
2018-12-13T05:06:52.686Z,10.47
2018-12-13T05:09:21.562Z,11.60
2018-12-13T05:11:50.501Z,34.47
2018-12-13T05:14:19.398Z,70.53
2018-12-13T05:16:48.390Z,52.00
2018-12-13T05:19:17.097Z,21.67
2018-12-13T05:21:45.992Z,50.50
2018-12-13T05:24:15.167Z,42.10
2018-12-13T05:26:44.228Z,30.00
2018-12-13T05:29:13.008Z,41.97
2018-12-13T05:31:41.940Z,79.53
2018-12-13T05:34:10.692Z,55.17
2018-12-13T05:36:39.397Z,43.10
2018-12-13T05:39:09.160Z,6.73
2018-12-13T05:41:38.367Z,7.57
2018-12-13T05:44:07.529Z,17.43
2018-12-13T05:46:36.592Z,46.57
2018-12-13T05:49:05.543Z,73.37
2018-12-13T05:51:34.318Z,26.23
2018-12-13T05:54:03.312Z,25.50
2018-12-13T05:56:32.150Z,25.60
2018-12-13T05:59:01.213Z,17.07
2018-12-13T06:01:30.370Z,24.57
2018-12-13T06:03:59.454Z,8.00
2018-12-13T06:06:28.178Z,38.90
2018-12-13T06:08:56.835Z,68.53
2018-12-13T06:11:25.825Z,42.10
2018-12-13T06:13:54.856Z,22.43
2018-12-13T06:16:24.012Z,35.23
2018-12-13T06:18:53.118Z,68.83
2018-12-13T06:21:22.067Z,81.93
2018-12-13T06:23:50.755Z,85.53
2018-12-13T06:26:19.779Z,63.33
2018-12-13T06:28:48.679Z,64.40
2018-12-13T06:31:17.904Z,24.90
2018-12-13T06:33:47.032Z,34.30
2018-12-13T06:36:15.968Z,127.77
2018-12-13T06:38:44.797Z,85.53
2018-12-13T06:41:13.842Z,58.67
2018-12-13T06:43:42.817Z,41.30
2018-12-13T06:46:11.816Z,22.43
2018-12-13T06:48:40.725Z,11.53
2018-12-13T06:51:09.831Z,11.83
2018-12-13T06:53:38.892Z,39.47
2018-12-13T06:56:07.932Z,38.13
2018-12-13T06:58:37.055Z,39.93
2018-12-13T07:01:06.174Z,35.27
2018-12-13T07:03:35.222Z,194.83
2018-12-13T07:06:04.227Z,39.57
2018-12-13T07:08:33.255Z,46.10
2018-12-13T07:11:02.209Z,33.33
2018-12-13T07:13:31.334Z,37.33
2018-12-13T07:16:00.230Z,27.33
2018-12-13T07:18:29.048Z,39.07
2018-12-13T07:20:58.028Z,71.30
2018-12-13T07:23:27.145Z,40.13
2018-12-13T07:25:56.258Z,60.80
2018-12-13T07:28:25.182Z,68.23
2018-12-13T07:30:54.193Z,32.93
2018-12-13T07:33:23.372Z,28.07
2018-12-13T07:35:52.459Z,23.27
2018-12-13T07:38:21.456Z,47.63
2018-12-13T07:40:50.494Z,63.20
2018-12-13T07:43:19.540Z,71.60
2018-12-13T07:45:48.500Z,58.90
2018-12-13T07:48:17.472Z,78.17
2018-12-13T07:50:46.411Z,88.10
2018-12-13T07:53:15.346Z,59.30
2018-12-13T07:55:44.566Z,100.07
2018-12-13T07:58:13.563Z,102.80
2018-12-13T08:00:42.344Z,80.00
2018-12-13T08:03:11.263Z,76.37
2018-12-13T08:05:40.340Z,78.57
2018-12-13T08:08:09.489Z,65.47
2018-12-13T08:10:38.365Z,54.83
2018-12-13T08:13:07.441Z,69.53
2018-12-13T08:15:36.177Z,62.70
2018-12-13T08:18:05.344Z,46.33
2018-12-13T08:20:34.335Z,33.93
2018-12-13T08:23:03.377Z,12.50
2018-12-13T08:25:32.310Z,20.87
2018-12-13T08:28:02.005Z,21.80
2018-12-13T08:30:30.932Z,27.07
2018-12-13T08:32:59.929Z,24.33
2018-12-13T08:35:28.916Z,39.40
2018-12-13T08:37:57.948Z,33.43
2018-12-13T08:40:27.087Z,22.20
2018-12-13T08:42:55.848Z,18.43
2018-12-13T08:45:24.935Z,18.00
2018-12-13T08:47:54.079Z,26.40
2018-12-13T08:50:22.986Z,26.57
2018-12-13T08:52:52.199Z,15.20
2018-12-13T08:55:21.251Z,13.70
2018-12-13T08:57:50.159Z,12.03
2018-12-13T09:00:18.804Z,11.70
2018-12-13T09:02:47.731Z,15.40
2018-12-13T09:05:16.699Z,30.33
2018-12-13T09:07:45.815Z,19.53
2018-12-13T09:10:14.784Z,16.90
2018-12-13T09:12:43.726Z,17.83
2018-12-13T09:15:12.776Z,43.30
2018-12-13T09:17:41.777Z,43.27
2018-12-13T09:20:10.812Z,43.93
2018-12-13T09:22:39.784Z,13.97
2018-12-13T09:25:08.737Z,11.10
2018-12-13T09:27:37.859Z,15.63
2018-12-13T09:30:07.471Z,21.57
2018-12-13T09:32:36.372Z,18.93
2018-12-13T09:35:06.220Z,22.43
2018-12-13T09:37:35.279Z,16.37
2018-12-13T09:40:04.756Z,15.83
2018-12-13T09:42:33.663Z,15.20
2018-12-13T09:45:02.619Z,13.13
2018-12-13T09:47:31.687Z,12.20
2018-12-13T09:50:00.741Z,19.90
2018-12-13T09:52:29.756Z,15.03
2018-12-13T09:55:05.410Z,16.57
2018-12-13T09:57:34.355Z,17.57
2018-12-13T10:00:04.126Z,16.07
2018-12-13T10:02:33.359Z,15.90
2018-12-13T10:05:02.412Z,18.57
2018-12-13T10:07:31.458Z,18.87
2018-12-13T10:10:00.454Z,17.00
2018-12-13T10:12:29.087Z,25.70
2018-12-13T10:14:58.025Z,32.43
2018-12-13T10:17:27.109Z,36.23
2018-12-13T10:19:56.115Z,31.90
2018-12-13T10:22:25.216Z,27.00
2018-12-13T10:24:54.063Z,27.77
2018-12-13T10:27:23.092Z,26.87
2018-12-13T10:29:52.229Z,27.00
2018-12-13T10:32:21.288Z,21.43
2018-12-13T10:34:50.526Z,23.27
2018-12-13T10:37:19.553Z,21.73
2018-12-13T10:39:48.593Z,26.60
2018-12-13T10:42:17.812Z,14.20
2018-12-13T10:44:46.672Z,14.23
2018-12-13T10:47:15.611Z,14.23
2018-12-13T10:49:44.671Z,20.30
2018-12-13T10:52:13.448Z,20.23
2018-12-13T10:54:42.504Z,29.90
2018-12-13T10:57:11.246Z,20.07
2018-12-13T10:59:40.284Z,17.67
2018-12-13T11:02:14.533Z,16.87
2018-12-13T11:04:43.740Z,18.17
2018-12-13T11:07:12.586Z,15.53
2018-12-13T11:09:41.614Z,19.23
2018-12-13T11:12:10.672Z,19.13
2018-12-13T11:14:39.717Z,20.70
2018-12-13T11:17:08.590Z,42.17
2018-12-13T11:19:37.285Z,23.47
2018-12-13T11:22:06.231Z,19.43
2018-12-13T11:24:35.326Z,22.63
2018-12-13T11:28:12.680Z,26.20
2018-12-13T11:30:41.727Z,22.07
2018-12-13T11:33:10.654Z,20.40
2018-12-13T11:35:39.603Z,20.93
2018-12-13T11:38:08.670Z,20.97
2018-12-13T11:40:37.734Z,21.60
2018-12-13T11:43:06.784Z,19.93
2018-12-13T11:45:35.691Z,24.97
2018-12-13T11:48:04.872Z,26.57
2018-12-13T11:50:34.110Z,59.77
2018-12-13T11:53:03.222Z,66.50
2018-12-13T11:55:34.168Z,37.27
2018-12-13T11:58:03.825Z,17.83
2018-12-13T12:00:32.853Z,13.40
2018-12-13T12:03:02.625Z,11.83
2018-12-13T12:05:31.434Z,14.03
2018-12-13T12:08:00.499Z,15.90
2018-12-13T12:10:29.511Z,12.47
2018-12-13T12:12:58.629Z,13.50
2018-12-13T12:15:27.712Z,9.90
2018-12-13T12:17:56.533Z,14.30
2018-12-13T12:20:25.606Z,15.53
2018-12-13T12:22:54.682Z,14.20
2018-12-13T12:25:23.740Z,23.83
2018-12-13T12:27:52.849Z,18.73
2018-12-13T12:30:21.533Z,16.37
2018-12-13T12:32:50.512Z,18.57
2018-12-13T12:35:19.443Z,15.53
2018-12-13T12:37:48.454Z,14.57
2018-12-13T12:40:17.125Z,14.53
2018-12-13T12:42:46.298Z,18.47
2018-12-13T12:45:15.436Z,19.03
2018-12-13T12:47:44.373Z,18.13
2018-12-13T12:50:13.495Z,21.33
2018-12-13T12:52:42.656Z,30.73
2018-12-13T12:55:11.701Z,24.57
2018-12-13T12:57:40.640Z,14.17
2018-12-13T13:00:10.991Z,15.53
2018-12-13T13:02:40.014Z,45.93
2018-12-13T13:05:09.152Z,13.00
2018-12-13T13:07:38.164Z,13.43
2018-12-13T13:10:08.048Z,15.80
2018-12-13T13:12:36.767Z,15.50
2018-12-13T13:15:05.903Z,20.43
2018-12-13T13:17:34.732Z,20.57
2018-12-13T13:20:03.787Z,18.90
2018-12-13T13:22:32.989Z,19.93
2018-12-13T13:25:02.115Z,16.47
2018-12-13T13:27:31.224Z,17.27
2018-12-13T13:30:00.083Z,18.87
2018-12-13T13:32:28.924Z,14.07
2018-12-13T13:34:58.827Z,13.83
2018-12-13T13:37:27.586Z,14.40
2018-12-13T13:39:56.521Z,18.17
2018-12-13T13:42:25.576Z,15.80
2018-12-13T13:44:58.744Z,22.13
2018-12-13T13:47:27.773Z,32.40
2018-12-13T13:49:56.881Z,18.40
2018-12-13T13:52:26.009Z,13.00
2018-12-13T13:54:55.152Z,19.23
2018-12-13T13:57:24.172Z,12.33
2018-12-13T13:59:53.134Z,19.53
2018-12-13T14:02:21.858Z,12.60
2018-12-13T14:04:50.804Z,9.93
2018-12-13T14:07:19.953Z,8.43
2018-12-13T14:09:48.977Z,6.37
2018-12-13T14:12:17.784Z,5.13
2018-12-13T14:14:46.731Z,5.30
2018-12-13T14:17:15.571Z,5.93
2018-12-13T14:19:44.664Z,11.83
2018-12-13T14:22:13.691Z,6.73
2018-12-13T14:24:42.678Z,7.03
2018-12-13T14:27:11.795Z,5.33
2018-12-13T14:29:40.723Z,12.60
2018-12-13T14:32:09.745Z,36.40
2018-12-13T14:34:38.611Z,15.70
2018-12-13T14:37:07.384Z,5.37
2018-12-13T14:39:36.057Z,10.87
2018-12-13T14:42:05.333Z,13.67
2018-12-13T14:44:34.519Z,6.03
2018-12-13T14:47:03.777Z,6.90
2018-12-13T14:49:33.483Z,5.93
2018-12-13T14:52:02.217Z,19.83
2018-12-13T14:54:31.074Z,8.77
2018-12-13T14:57:00.060Z,4.93
2018-12-13T14:59:29.976Z,4.17
2018-12-13T15:01:58.957Z,5.83
2018-12-13T15:04:29.016Z,7.07
2018-12-13T15:06:57.812Z,7.87
2018-12-13T15:09:26.517Z,9.00
2018-12-13T15:11:55.348Z,11.80
2018-12-13T15:14:24.147Z,10.30
2018-12-13T15:16:53.333Z,19.87
2018-12-13T15:19:22.299Z,18.80
2018-12-13T15:21:51.389Z,22.77
2018-12-13T15:24:20.504Z,14.83
2018-12-13T15:26:49.559Z,19.97
2018-12-13T15:29:18.547Z,13.27
2018-12-13T15:31:47.468Z,14.00
2018-12-13T15:34:16.529Z,23.30
2018-12-13T15:36:45.571Z,18.67
2018-12-13T15:39:14.608Z,12.63
2018-12-13T15:41:43.282Z,13.47
2018-12-13T15:44:12.277Z,18.03
2018-12-13T15:46:41.212Z,17.73
2018-12-13T15:49:10.219Z,9.37
2018-12-13T15:51:39.143Z,10.40
2018-12-13T15:54:08.169Z,8.43
2018-12-13T15:56:37.171Z,8.03
2018-12-13T15:59:06.620Z,26.83
2018-12-13T16:01:35.474Z,30.10
2018-12-13T16:04:04.551Z,25.13
2018-12-13T16:06:33.508Z,14.47
2018-12-13T16:09:02.405Z,26.03
2018-12-13T16:11:31.364Z,18.00
2018-12-13T16:14:00.285Z,17.03
2018-12-13T16:16:29.228Z,23.57
2018-12-13T16:18:58.163Z,31.97
2018-12-13T16:21:26.892Z,20.33
2018-12-13T16:23:55.922Z,22.20
2018-12-13T16:26:24.939Z,24.13
2018-12-13T16:28:54.000Z,21.07
2018-12-13T16:31:23.049Z,16.97
2018-12-13T16:33:52.067Z,18.53
2018-12-13T16:36:21.903Z,17.07
2018-12-13T16:38:50.932Z,16.67
2018-12-13T16:41:19.910Z,23.33
2018-12-13T16:43:49.030Z,59.13
2018-12-13T16:46:18.272Z,44.60
2018-12-13T16:48:47.205Z,55.37
2018-12-13T16:51:16.180Z,20.90
2018-12-13T16:53:45.184Z,16.07
2018-12-13T16:56:14.933Z,16.40
2018-12-13T16:58:44.197Z,19.20
2018-12-13T17:01:13.251Z,15.67
2018-12-13T17:03:42.807Z,11.23
2018-12-13T17:06:11.844Z,13.07
2018-12-13T17:08:41.049Z,13.27
2018-12-13T17:11:10.088Z,17.40
2018-12-13T17:13:39.928Z,23.50
2018-12-13T17:16:10.007Z,25.03
2018-12-13T17:18:39.204Z,23.87
2018-12-13T17:21:08.295Z,21.90
2018-12-13T17:23:37.241Z,25.43
2018-12-13T17:26:06.120Z,22.03
2018-12-13T17:28:34.916Z,25.03
2018-12-13T17:31:04.005Z,24.87
2018-12-13T17:33:33.016Z,39.83
2018-12-13T17:36:01.901Z,31.13
2018-12-13T17:38:30.838Z,23.37
2018-12-13T17:40:59.479Z,22.50
2018-12-13T17:43:28.406Z,36.03
2018-12-13T17:45:57.452Z,38.63
2018-12-13T17:48:26.458Z,29.87
2018-12-13T17:50:56.024Z,31.80
2018-12-13T17:53:24.983Z,32.37
2018-12-13T17:55:54.192Z,32.70
2018-12-13T17:58:23.260Z,34.37
2018-12-13T18:00:52.488Z,18.50
2018-12-13T18:03:21.440Z,23.70
2018-12-13T18:05:50.590Z,36.43
2018-12-13T18:08:19.623Z,38.20
2018-12-13T18:10:48.745Z,40.43
2018-12-13T18:13:17.584Z,34.53
2018-12-13T18:15:46.491Z,48.10
2018-12-13T18:18:15.333Z,30.40
2018-12-13T18:20:44.390Z,33.70
2018-12-13T18:23:13.336Z,67.00
2018-12-13T18:25:42.422Z,77.27
2018-12-13T18:28:11.669Z,28.33
2018-12-13T18:30:40.675Z,29.73
2018-12-13T18:33:09.459Z,35.23
2018-12-13T18:35:38.747Z,33.97
2018-12-13T18:38:07.656Z,42.87
2018-12-13T18:40:36.796Z,24.03
2018-12-13T18:43:05.801Z,32.03
2018-12-13T18:45:37.763Z,34.80
2018-12-13T18:48:07.437Z,29.03
2018-12-13T18:50:36.143Z,27.53
2018-12-13T18:53:05.303Z,30.33
2018-12-13T18:55:34.602Z,34.50
2018-12-13T18:58:03.563Z,44.47
2018-12-13T19:00:32.300Z,41.20
2018-12-13T19:03:01.440Z,28.27
2018-12-13T19:05:30.516Z,18.03
2018-12-13T19:07:59.484Z,28.47
2018-12-13T19:10:28.592Z,20.47
2018-12-13T19:12:57.782Z,12.50
2018-12-13T19:15:26.959Z,15.47
2018-12-13T19:17:56.127Z,20.60
2018-12-13T19:20:24.872Z,34.37
2018-12-13T19:22:54.847Z,31.97
2018-12-13T19:25:23.815Z,27.67
2018-12-13T19:27:52.898Z,26.00
2018-12-13T19:30:21.935Z,37.63
2018-12-13T19:32:51.055Z,39.87
2018-12-13T19:35:20.195Z,38.43
2018-12-13T19:37:49.036Z,32.17
2018-12-13T19:40:17.884Z,21.60
2018-12-13T19:42:46.964Z,38.20
2018-12-13T19:45:15.703Z,30.73
2018-12-13T19:47:44.813Z,39.23
2018-12-13T19:50:13.963Z,27.67
2018-12-13T19:52:42.779Z,25.93
2018-12-13T19:55:12.330Z,26.80
2018-12-13T19:57:41.228Z,25.30
2018-12-13T20:00:11.552Z,24.07
2018-12-13T20:02:40.690Z,23.13
2018-12-13T20:05:09.736Z,22.90
2018-12-13T20:07:39.028Z,23.37
2018-12-13T20:10:09.197Z,24.43
2018-12-13T20:12:38.011Z,29.73
2018-12-13T20:15:07.712Z,55.43
2018-12-13T20:17:36.752Z,83.57
2018-12-13T20:20:06.241Z,86.17
2018-12-13T20:22:35.036Z,74.00
2018-12-13T20:25:04.028Z,76.30
2018-12-13T20:27:32.995Z,68.60
2018-12-13T20:30:02.179Z,64.90
2018-12-13T20:32:31.528Z,66.27
2018-12-13T20:35:00.974Z,55.00
2018-12-13T20:37:29.760Z,42.27
2018-12-13T20:39:58.557Z,34.80
2018-12-13T20:42:28.362Z,28.27
2018-12-13T20:44:57.508Z,24.90
2018-12-13T20:47:26.390Z,22.40
2018-12-13T20:49:55.337Z,28.50
2018-12-13T20:52:24.253Z,36.30
2018-12-13T20:54:53.099Z,52.93
2018-12-13T20:57:22.062Z,31.43
2018-12-13T20:59:50.966Z,21.80
2018-12-13T21:02:20.046Z,23.73
2018-12-13T21:04:49.032Z,25.63
2018-12-13T21:07:23.068Z,40.57
2018-12-13T21:09:52.642Z,49.30
2018-12-13T21:12:21.905Z,51.57
2018-12-13T21:14:51.035Z,52.03
2018-12-13T21:17:20.048Z,41.83
2018-12-13T21:19:49.277Z,22.43
2018-12-13T21:22:18.476Z,19.67
2018-12-13T21:24:47.653Z,19.53
2018-12-13T21:27:16.850Z,20.37
2018-12-13T21:29:45.543Z,31.10
2018-12-13T21:32:14.640Z,24.10
2018-12-13T21:34:43.684Z,34.70
2018-12-13T21:37:12.686Z,50.87
2018-12-13T21:39:41.775Z,69.53
2018-12-13T21:42:10.525Z,49.20
2018-12-13T21:44:39.454Z,45.07
2018-12-13T21:47:08.177Z,38.73
2018-12-13T21:49:37.273Z,39.37
2018-12-13T21:52:06.192Z,40.43
2018-12-13T21:54:35.431Z,37.93
2018-12-13T21:57:04.420Z,36.07
2018-12-13T21:59:33.561Z,33.80
2018-12-13T22:02:02.497Z,31.97
2018-12-13T22:04:31.357Z,31.97
2018-12-13T22:07:00.388Z,32.90
2018-12-13T22:09:29.418Z,34.03
2018-12-13T22:11:58.537Z,32.67
2018-12-13T22:14:27.566Z,32.80
2018-12-13T22:16:56.803Z,32.50
2018-12-13T22:19:25.783Z,33.33
2018-12-13T22:21:54.555Z,30.53
2018-12-13T22:24:23.869Z,32.73
2018-12-13T22:26:57.314Z,31.23
2018-12-13T22:29:26.099Z,30.07
2018-12-13T22:31:55.149Z,31.43
2018-12-13T22:34:24.417Z,32.00
2018-12-13T22:36:53.748Z,30.40
2018-12-13T22:39:22.696Z,28.37
2018-12-13T22:41:51.725Z,28.83
2018-12-13T22:44:20.739Z,27.77
2018-12-13T22:46:49.692Z,31.33
2018-12-13T22:49:18.483Z,32.07
2018-12-13T22:51:47.465Z,31.33
2018-12-13T22:54:16.511Z,30.77
2018-12-13T22:56:45.457Z,28.40
2018-12-13T22:59:14.265Z,31.20
2018-12-13T23:01:43.428Z,33.77
2018-12-13T23:04:12.106Z,33.87
2018-12-13T23:06:41.154Z,29.27
2018-12-13T23:09:10.212Z,30.90
2018-12-13T23:11:39.149Z,30.97
2018-12-13T23:14:08.257Z,31.40
2018-12-13T23:16:37.213Z,33.43
2018-12-13T23:19:06.283Z,32.27
2018-12-13T23:21:35.382Z,29.90
2018-12-13T23:24:04.204Z,31.53
2018-12-13T23:26:33.249Z,27.70
2018-12-13T23:29:02.213Z,23.60
2018-12-13T23:31:31.303Z,19.93
2018-12-13T23:34:00.329Z,18.00
2018-12-13T23:36:29.332Z,17.47
2018-12-13T23:38:57.997Z,18.80
2018-12-13T23:41:26.826Z,21.93
2018-12-13T23:43:55.513Z,23.83
2018-12-13T23:46:24.315Z,21.63
2018-12-13T23:48:53.316Z,20.03
2018-12-13T23:51:22.425Z,21.37
2018-12-13T23:53:51.389Z,22.73
2018-12-13T23:56:20.475Z,22.30
2018-12-13T23:58:49.421Z,22.30
